createdAt,value
2018-12-12T00:01:24.268Z,34.23
2018-12-12T00:03:54.291Z,34.50
2018-12-12T00:06:24.333Z,37.83
2018-12-12T00:08:52.279Z,36.77
2018-12-12T00:11:21.131Z,36.00
2018-12-12T00:13:49.633Z,33.30
2018-12-12T00:16:17.584Z,34.57
2018-12-12T00:18:45.569Z,35.17
2018-12-12T00:21:13.588Z,34.77
2018-12-12T00:23:41.564Z,32.83
2018-12-12T00:26:10.777Z,36.50
2018-12-12T00:28:38.796Z,30.53
2018-12-12T00:31:06.764Z,39.73
2018-12-12T00:33:35.600Z,33.67
2018-12-12T00:36:03.587Z,33.83
2018-12-12T00:38:31.585Z,36.70
2018-12-12T00:40:59.530Z,33.13
2018-12-12T00:43:27.511Z,33.00
2018-12-12T00:45:55.461Z,35.57
2018-12-12T00:48:23.421Z,34.03
2018-12-12T00:50:51.451Z,30.73
2018-12-12T00:53:19.399Z,32.10
2018-12-12T00:55:47.417Z,34.27
2018-12-12T00:58:15.394Z,34.07
2018-12-12T01:00:43.393Z,33.57
2018-12-12T01:03:11.340Z,33.37
2018-12-12T01:05:39.309Z,32.83
2018-12-12T01:08:07.287Z,33.07
2018-12-12T01:10:35.251Z,33.97
2018-12-12T01:13:03.393Z,29.50
2018-12-12T01:15:31.341Z,30.73
2018-12-12T01:17:59.308Z,33.07
2018-12-12T01:20:27.281Z,28.17
2018-12-12T01:22:55.230Z,27.23
2018-12-12T01:25:23.190Z,33.13
2018-12-12T01:27:51.189Z,30.47
2018-12-12T01:30:19.174Z,30.53
2018-12-12T01:32:47.181Z,30.13
2018-12-12T01:35:15.155Z,31.90
2018-12-12T01:37:43.528Z,32.60
2018-12-12T01:40:11.525Z,32.43
2018-12-12T01:42:39.536Z,33.67
2018-12-12T01:45:07.680Z,33.03
2018-12-12T01:47:36.305Z,30.57
2018-12-12T01:50:05.343Z,33.70
2018-12-12T01:52:33.312Z,27.97
2018-12-12T01:55:01.300Z,31.27
2018-12-12T01:57:29.315Z,31.17
2018-12-12T01:59:57.251Z,31.37
2018-12-12T02:02:25.184Z,28.43
2018-12-12T02:04:54.056Z,30.63
2018-12-12T02:07:22.500Z,28.80
2018-12-12T02:09:51.187Z,31.03
2018-12-12T02:12:19.671Z,28.23
2018-12-12T02:14:48.371Z,28.83
2018-12-12T02:17:17.039Z,28.20
2018-12-12T02:19:45.531Z,27.33
2018-12-12T02:22:14.218Z,27.40
2018-12-12T02:24:43.095Z,29.60
2018-12-12T02:27:11.575Z,30.33
2018-12-12T02:29:40.255Z,28.63
2018-12-12T02:32:08.730Z,30.90
2018-12-12T02:34:37.462Z,29.30
2018-12-12T02:37:06.138Z,31.33
2018-12-12T02:39:34.584Z,32.97
2018-12-12T02:42:03.244Z,33.47
2018-12-12T02:46:01.226Z,34.37
2018-12-12T02:48:29.805Z,34.20
2018-12-12T02:50:58.640Z,33.00
2018-12-12T02:53:27.106Z,32.50
2018-12-12T02:55:56.196Z,34.57
2018-12-12T02:58:24.665Z,34.90
2018-12-12T03:00:53.369Z,35.03
2018-12-12T03:03:22.089Z,34.67
2018-12-12T03:05:50.531Z,34.40
2018-12-12T03:08:19.214Z,36.00
2018-12-12T03:10:47.518Z,34.07
2018-12-12T03:13:16.183Z,34.93
2018-12-12T03:15:45.220Z,31.50
2018-12-12T03:18:30.561Z,35.10
2018-12-12T03:20:59.041Z,32.93
2018-12-12T03:23:27.498Z,32.83
2018-12-12T03:25:56.020Z,34.80
2018-12-12T03:28:24.692Z,30.07
2018-12-12T03:30:53.152Z,33.20
2018-12-12T03:33:21.874Z,31.90
2018-12-12T03:35:50.324Z,33.77
2018-12-12T03:38:19.016Z,29.73
2018-12-12T03:40:47.884Z,30.77
2018-12-12T03:43:16.596Z,31.50
2018-12-12T03:45:45.052Z,30.40
2018-12-12T03:48:13.998Z,33.40
2018-12-12T03:50:42.438Z,29.57
2018-12-12T03:53:11.135Z,28.80
2018-12-12T03:55:40.633Z,30.20
2018-12-12T03:58:09.311Z,31.37
2018-12-12T04:00:37.804Z,32.07
2018-12-12T04:03:06.494Z,31.80
2018-12-12T04:05:34.941Z,27.40
2018-12-12T04:08:03.668Z,29.40
2018-12-12T04:10:32.353Z,28.10
2018-12-12T04:13:01.036Z,30.33
2018-12-12T04:15:29.493Z,31.83
2018-12-12T04:17:58.208Z,25.10
2018-12-12T04:20:26.647Z,25.77
2018-12-12T04:22:57.999Z,29.97
2018-12-12T04:25:26.864Z,31.73
2018-12-12T04:27:55.802Z,29.53
2018-12-12T04:30:24.527Z,28.53
2018-12-12T04:32:52.961Z,25.40
2018-12-12T04:35:21.660Z,30.43
2018-12-12T04:37:50.141Z,28.57
2018-12-12T04:40:18.820Z,26.43
2018-12-12T04:42:47.709Z,29.20
2018-12-12T04:45:16.395Z,28.87
2018-12-12T04:47:45.079Z,28.63
2018-12-12T04:50:13.759Z,27.07
2018-12-12T04:52:42.273Z,30.57
2018-12-12T04:55:10.924Z,30.43
2018-12-12T04:57:39.608Z,30.27
2018-12-12T05:00:08.897Z,34.47
2018-12-12T05:02:37.960Z,31.13
2018-12-12T05:05:06.740Z,30.67
2018-12-12T05:07:35.226Z,28.73
2018-12-12T05:10:04.103Z,29.43
2018-12-12T05:12:33.127Z,31.97
2018-12-12T05:15:01.453Z,28.33
2018-12-12T05:17:30.104Z,30.27
2018-12-12T05:19:58.589Z,31.97
2018-12-12T05:22:27.298Z,26.97
2018-12-12T05:24:55.974Z,27.93
2018-12-12T05:27:24.428Z,28.57
2018-12-12T05:29:54.176Z,26.70
2018-12-12T05:32:22.632Z,31.10
2018-12-12T05:34:51.105Z,29.07
2018-12-12T05:37:19.837Z,31.63
2018-12-12T05:39:48.280Z,30.60
2018-12-12T05:42:16.972Z,29.23
2018-12-12T05:44:45.694Z,30.27
2018-12-12T05:47:14.134Z,32.27
2018-12-12T05:49:42.607Z,30.53
2018-12-12T05:52:11.360Z,31.97
2018-12-12T05:54:39.972Z,29.23
2018-12-12T05:57:08.695Z,29.20
2018-12-12T05:59:37.170Z,28.33
2018-12-12T06:02:05.825Z,31.03
2018-12-12T06:04:34.528Z,28.53
2018-12-12T06:07:04.125Z,25.87
2018-12-12T06:09:32.936Z,28.30
2018-12-12T06:12:00.868Z,28.00
2018-12-12T06:14:28.842Z,30.40
2018-12-12T06:16:56.796Z,26.47
2018-12-12T06:19:24.716Z,28.17
2018-12-12T06:21:52.736Z,29.97
2018-12-12T06:24:20.693Z,28.30
2018-12-12T06:26:48.654Z,31.77
2018-12-12T06:29:19.484Z,29.63
2018-12-12T06:31:52.599Z,28.13
2018-12-12T06:34:20.661Z,28.97
2018-12-12T06:36:49.247Z,27.77
2018-12-12T06:39:19.524Z,27.83
2018-12-12T06:41:47.947Z,28.27
2018-12-12T06:44:16.167Z,28.63
2018-12-12T06:46:44.189Z,30.23
2018-12-12T06:49:12.487Z,28.53
2018-12-12T06:51:41.685Z,27.77
2018-12-12T06:54:11.653Z,29.90
2018-12-12T06:56:40.222Z,30.00
2018-12-12T06:59:08.549Z,28.70
2018-12-12T07:01:37.995Z,29.60
2018-12-12T07:04:06.494Z,29.43
2018-12-12T07:06:34.990Z,30.67
2018-12-12T07:09:06.967Z,31.20
2018-12-12T07:11:36.563Z,32.47
2018-12-12T07:14:05.426Z,31.97
2018-12-12T07:16:34.698Z,32.07
2018-12-12T07:19:03.318Z,33.90
2018-12-12T07:21:32.004Z,32.53
2018-12-12T07:24:00.491Z,30.93
2018-12-12T07:26:29.150Z,33.17
2018-12-12T07:28:57.635Z,33.50
2018-12-12T07:31:26.159Z,33.67
2018-12-12T07:34:00.701Z,31.03
2018-12-12T07:36:24.708Z,34.37
2018-12-12T07:38:52.697Z,35.13
2018-12-12T07:41:20.975Z,36.40
2018-12-12T07:44:05.868Z,34.83
2018-12-12T07:46:39.887Z,33.90
2018-12-12T07:49:10.472Z,35.87
2018-12-12T07:51:45.089Z,34.80
2018-12-12T07:54:15.639Z,37.70
2018-12-12T07:56:44.271Z,35.07
2018-12-12T07:59:12.963Z,34.67
2018-12-12T08:01:42.092Z,35.17
2018-12-12T08:04:10.532Z,35.73
2018-12-12T08:06:39.263Z,35.37
2018-12-12T08:09:08.324Z,36.60
2018-12-12T08:11:39.054Z,35.87
2018-12-12T08:14:07.746Z,37.33
2018-12-12T08:16:37.493Z,35.30
2018-12-12T08:19:05.794Z,34.40
2018-12-12T08:21:34.992Z,32.67
2018-12-12T08:24:04.180Z,31.87
2018-12-12T08:26:32.800Z,35.57
2018-12-12T08:29:01.506Z,37.03
2018-12-12T08:31:31.068Z,36.47
2018-12-12T08:33:59.888Z,37.47
2018-12-12T08:36:28.584Z,37.80
2018-12-12T08:38:57.072Z,37.23
2018-12-12T08:41:25.754Z,36.40
2018-12-12T08:43:54.211Z,35.73
2018-12-12T08:46:22.969Z,35.17
2018-12-12T08:48:51.608Z,36.00
2018-12-12T08:51:20.290Z,34.10
2018-12-12T08:53:48.980Z,31.97
2018-12-12T08:56:17.659Z,35.93
2018-12-12T08:58:46.347Z,35.90
2018-12-12T09:01:15.276Z,41.57
2018-12-12T09:03:43.907Z,37.27
2018-12-12T09:06:12.609Z,38.90
2018-12-12T09:08:41.324Z,36.40
2018-12-12T09:11:09.752Z,38.23
2018-12-12T09:13:39.478Z,33.93
2018-12-12T09:16:08.596Z,38.77
2018-12-12T09:18:37.036Z,36.27
2018-12-12T09:21:05.680Z,33.83
2018-12-12T09:23:34.514Z,36.50
2018-12-12T09:26:03.327Z,32.87
2018-12-12T09:28:31.791Z,34.60
2018-12-12T09:31:02.332Z,32.30
2018-12-12T09:33:34.304Z,35.43
2018-12-12T09:36:05.024Z,38.23
2018-12-12T09:38:33.484Z,31.80
2018-12-12T09:41:02.174Z,32.50
2018-12-12T09:43:30.675Z,34.07
2018-12-12T09:45:59.472Z,38.30
2018-12-12T09:48:28.016Z,34.60
2018-12-12T09:50:56.523Z,33.67
2018-12-12T09:53:27.190Z,32.87
2018-12-12T09:55:55.721Z,34.63
2018-12-12T09:58:24.444Z,33.63
2018-12-12T10:00:53.327Z,33.20
2018-12-12T10:03:21.993Z,30.87
2018-12-12T10:05:50.690Z,30.43
2018-12-12T10:08:19.166Z,33.90
2018-12-12T10:10:47.638Z,34.70
2018-12-12T10:13:17.385Z,36.53
2018-12-12T10:15:45.841Z,34.77
2018-12-12T10:18:14.522Z,32.50
2018-12-12T10:20:43.231Z,33.60
2018-12-12T10:23:15.361Z,32.80
2018-12-12T10:25:44.105Z,39.90
2018-12-12T10:28:12.748Z,46.30
2018-12-12T10:30:41.439Z,37.70
2018-12-12T10:33:09.950Z,38.80
2018-12-12T10:35:39.810Z,38.20
2018-12-12T10:38:08.509Z,37.10
2018-12-12T10:40:36.854Z,32.93
2018-12-12T10:43:05.692Z,35.23
2018-12-12T10:45:34.378Z,37.47
2018-12-12T10:48:03.897Z,34.30
2018-12-12T10:50:32.576Z,42.50
2018-12-12T10:53:01.033Z,36.03
2018-12-12T10:55:29.560Z,35.10
2018-12-12T10:57:58.405Z,32.17
2018-12-12T11:00:26.891Z,32.77
2018-12-12T11:03:01.258Z,29.93
2018-12-12T11:05:29.795Z,31.03
2018-12-12T11:07:58.255Z,28.33
2018-12-12T11:10:27.444Z,28.73
2018-12-12T11:12:56.257Z,35.07
2018-12-12T11:15:24.968Z,36.17
2018-12-12T11:17:53.460Z,29.63
2018-12-12T11:20:22.103Z,31.23
2018-12-12T11:22:50.577Z,30.00
2018-12-12T11:25:19.099Z,26.53
2018-12-12T11:27:47.552Z,28.93
2018-12-12T11:30:16.250Z,29.17
2018-12-12T11:32:44.951Z,28.23
2018-12-12T11:35:13.608Z,28.80
2018-12-12T11:37:42.275Z,27.90
2018-12-12T11:40:10.776Z,25.93
2018-12-12T11:42:39.657Z,25.90
2018-12-12T11:45:08.366Z,25.50
2018-12-12T11:47:36.704Z,24.67
2018-12-12T11:50:05.759Z,23.87
2018-12-12T11:52:41.229Z,26.40
2018-12-12T11:55:10.906Z,28.63
2018-12-12T11:57:40.143Z,24.33
2018-12-12T12:00:12.132Z,23.93
2018-12-12T12:02:40.664Z,27.80
2018-12-12T12:05:09.541Z,24.13
2018-12-12T12:07:39.404Z,22.87
2018-12-12T12:10:09.475Z,34.40
2018-12-12T12:12:39.699Z,26.10
2018-12-12T12:15:08.936Z,30.93
2018-12-12T12:17:41.838Z,28.13
2018-12-12T12:20:17.347Z,27.20
2018-12-12T12:22:47.694Z,26.40
2018-12-12T12:25:16.419Z,25.83
2018-12-12T12:27:45.935Z,26.07
2018-12-12T12:30:23.618Z,23.90
2018-12-12T12:33:02.810Z,24.93
2018-12-12T12:35:37.082Z,29.47
2018-12-12T12:38:06.057Z,26.50
2018-12-12T12:40:34.718Z,27.30
2018-12-12T12:43:04.044Z,33.80
2018-12-12T12:45:32.918Z,33.70
2018-12-12T12:48:01.592Z,34.93
2018-12-12T12:50:30.313Z,27.50
2018-12-12T12:52:58.947Z,33.53
2018-12-12T12:55:27.212Z,29.73
2018-12-12T12:57:55.933Z,40.93
2018-12-12T13:00:24.412Z,32.63
2018-12-12T13:02:54.329Z,30.30
2018-12-12T13:05:23.041Z,39.00
2018-12-12T13:07:51.708Z,30.10
2018-12-12T13:10:20.438Z,38.03
2018-12-12T13:12:49.442Z,36.13
2018-12-12T13:15:19.785Z,32.60
2018-12-12T13:17:49.121Z,35.90
2018-12-12T13:20:17.788Z,43.30
2018-12-12T13:22:46.468Z,25.77
2018-12-12T13:25:14.993Z,24.13
2018-12-12T13:27:43.846Z,21.70
2018-12-12T13:30:17.418Z,24.93
2018-12-12T13:32:45.925Z,27.67
2018-12-12T13:35:17.274Z,23.80
2018-12-12T13:39:15.195Z,23.97
2018-12-12T13:41:43.270Z,21.87
2018-12-12T13:44:12.033Z,25.67
2018-12-12T13:46:40.475Z,21.43
2018-12-12T13:49:09.433Z,20.07
2018-12-12T13:51:38.181Z,22.93
2018-12-12T13:54:06.345Z,18.90
2018-12-12T13:56:35.245Z,20.93
2018-12-12T13:59:03.929Z,21.33
2018-12-12T14:01:32.387Z,21.57
2018-12-12T14:04:01.138Z,22.90
2018-12-12T14:06:29.772Z,23.47
2018-12-12T14:08:57.777Z,19.90
2018-12-12T14:11:27.654Z,17.77
2018-12-12T14:13:56.454Z,18.80
2018-12-12T14:16:26.136Z,18.97
2018-12-12T14:18:55.141Z,18.70
2018-12-12T14:21:23.164Z,20.03
2018-12-12T14:23:51.127Z,18.53
2018-12-12T14:26:19.141Z,17.70
2018-12-12T14:28:47.726Z,20.03
2018-12-12T14:31:16.426Z,30.47
2018-12-12T14:33:44.433Z,19.20
2018-12-12T14:36:13.187Z,28.73
2018-12-12T14:38:41.189Z,18.53
2018-12-12T14:41:09.213Z,17.90
2018-12-12T14:43:37.195Z,19.57
2018-12-12T14:46:05.321Z,26.90
2018-12-12T14:48:34.560Z,19.47
2018-12-12T14:51:02.544Z,19.90
2018-12-12T14:53:30.631Z,20.37
2018-12-12T14:55:58.712Z,18.87
2018-12-12T14:58:26.701Z,19.57
2018-12-12T15:00:55.075Z,22.80
2018-12-12T15:03:23.189Z,20.37
2018-12-12T15:05:57.955Z,17.87
2018-12-12T15:08:25.971Z,20.97
2018-12-12T15:10:54.990Z,21.13
2018-12-12T15:13:23.487Z,18.13
2018-12-12T15:15:51.695Z,16.97
2018-12-12T15:18:20.403Z,24.00
2018-12-12T15:20:48.387Z,21.80
2018-12-12T15:23:25.111Z,17.53
2018-12-12T15:25:54.421Z,20.63
2018-12-12T15:28:31.467Z,23.27
2018-12-12T15:32:30.292Z,22.43
2018-12-12T15:34:58.327Z,21.93
2018-12-12T15:37:26.328Z,23.30
2018-12-12T15:39:54.351Z,26.27
2018-12-12T15:42:22.364Z,24.40
2018-12-12T15:44:50.365Z,30.53
2018-12-12T15:47:18.359Z,24.93
2018-12-12T15:49:46.370Z,37.33
2018-12-12T15:52:14.344Z,26.97
2018-12-12T15:54:43.566Z,21.07
2018-12-12T15:57:12.032Z,18.27
2018-12-12T15:59:40.409Z,25.47
2018-12-12T16:02:08.498Z,20.77
2018-12-12T16:04:36.510Z,28.33
2018-12-12T16:07:04.488Z,27.30
2018-12-12T16:09:33.596Z,24.63
2018-12-12T16:12:01.627Z,24.63
2018-12-12T16:14:29.615Z,27.40
2018-12-12T16:16:57.588Z,28.33
2018-12-12T16:19:25.607Z,22.43
2018-12-12T16:21:53.614Z,23.83
2018-12-12T16:24:21.595Z,26.37
2018-12-12T16:26:49.602Z,22.87
2018-12-12T16:29:17.705Z,19.53
2018-12-12T16:31:45.689Z,23.07
2018-12-12T16:34:13.874Z,24.77
2018-12-12T16:36:41.845Z,20.60
2018-12-12T16:39:09.853Z,22.37
2018-12-12T16:41:37.891Z,23.80
2018-12-12T16:44:06.464Z,17.63
2018-12-12T16:46:41.322Z,16.93
2018-12-12T16:49:09.303Z,19.03
2018-12-12T16:51:37.288Z,19.47
2018-12-12T16:54:05.325Z,22.00
2018-12-12T16:56:33.294Z,21.70
2018-12-12T16:59:01.285Z,18.97
2018-12-12T17:01:29.928Z,16.80
2018-12-12T17:03:57.926Z,20.53
2018-12-12T17:06:25.901Z,18.57
2018-12-12T17:08:53.888Z,18.77
2018-12-12T17:11:22.335Z,19.63
2018-12-12T17:13:50.878Z,20.10
2018-12-12T17:16:19.402Z,18.77
2018-12-12T17:18:48.041Z,18.57
2018-12-12T17:21:17.396Z,19.83
2018-12-12T17:23:46.370Z,26.77
2018-12-12T17:26:15.677Z,16.10
2018-12-12T17:28:44.407Z,25.77
2018-12-12T17:31:12.391Z,15.53
2018-12-12T17:33:40.558Z,24.57
2018-12-12T17:36:08.683Z,21.73
2018-12-12T17:38:37.344Z,17.10
2018-12-12T17:41:05.782Z,19.53
2018-12-12T17:43:34.257Z,19.63
2018-12-12T17:46:02.987Z,18.97
2018-12-12T17:48:32.221Z,20.33
2018-12-12T17:51:01.378Z,22.27
2018-12-12T17:53:30.075Z,19.93
2018-12-12T17:55:58.412Z,22.20
2018-12-12T18:05:29.180Z,50.37
2018-12-12T18:07:57.371Z,34.87
2018-12-12T18:10:25.440Z,19.67
2018-12-12T18:12:53.667Z,29.37
2018-12-12T18:15:23.689Z,28.60
2018-12-12T18:17:54.034Z,41.80
2018-12-12T18:20:22.060Z,49.43
2018-12-12T18:22:50.177Z,60.77
2018-12-12T18:25:21.077Z,17.27
2018-12-12T18:27:50.009Z,17.77
2018-12-12T18:30:18.828Z,16.37
2018-12-12T18:32:49.771Z,18.77
2018-12-12T18:35:24.597Z,20.97
2018-12-12T18:37:53.127Z,14.70
2018-12-12T18:40:21.181Z,16.10
2018-12-12T18:42:51.215Z,15.97
2018-12-12T18:45:19.371Z,16.33
2018-12-12T18:47:57.596Z,17.93
2018-12-12T18:50:39.184Z,17.13
2018-12-12T18:53:33.988Z,14.43
2018-12-12T18:56:05.503Z,16.10
2018-12-12T18:58:35.045Z,16.30
2018-12-12T19:01:03.055Z,20.43
2018-12-12T19:03:33.649Z,16.17
2018-12-12T19:06:03.457Z,16.63
2018-12-12T19:08:32.188Z,17.57
2018-12-12T19:11:00.695Z,15.23
2018-12-12T19:13:28.789Z,16.73
2018-12-12T19:15:56.805Z,19.07
2018-12-12T19:18:25.389Z,18.83
2018-12-12T19:20:59.878Z,14.30
2018-12-12T19:23:24.275Z,14.27
2018-12-12T19:26:01.383Z,14.77
2018-12-12T19:28:41.559Z,15.07
2018-12-12T19:31:25.688Z,15.37
2018-12-12T19:33:55.320Z,16.27
2018-12-12T19:36:24.178Z,20.90
2018-12-12T19:39:55.503Z,17.33
2018-12-12T19:42:23.856Z,18.00
2018-12-12T19:44:51.920Z,18.67
2018-12-12T19:47:21.152Z,16.27
2018-12-12T19:49:49.668Z,13.90
2018-12-12T19:52:18.216Z,15.70
2018-12-12T19:54:46.411Z,13.60
2018-12-12T19:57:21.472Z,18.67
2018-12-12T19:59:49.535Z,20.73
2018-12-12T20:02:17.953Z,25.63
2018-12-12T20:04:46.337Z,33.03
2018-12-12T20:07:14.858Z,20.07
2018-12-12T20:09:54.523Z,17.80
2018-12-12T20:12:32.866Z,15.63
2018-12-12T20:15:15.641Z,18.70
2018-12-12T20:17:45.819Z,15.97
2018-12-12T20:20:15.691Z,18.00
2018-12-12T20:22:44.364Z,16.07
2018-12-12T20:25:13.539Z,15.67
2018-12-12T20:27:42.270Z,19.40
2018-12-12T20:30:11.596Z,19.10
2018-12-12T20:32:40.431Z,17.93
2018-12-12T20:35:09.320Z,19.93
2018-12-12T20:37:38.188Z,19.87
2018-12-12T20:40:07.250Z,16.07
2018-12-12T20:42:35.857Z,23.47
2018-12-12T20:45:05.016Z,24.23
2018-12-12T20:47:33.808Z,16.97
2018-12-12T20:50:03.408Z,20.97
2018-12-12T20:52:34.837Z,17.47
2018-12-12T20:55:03.743Z,18.73
2018-12-12T20:57:46.875Z,16.83
2018-12-12T21:00:25.307Z,20.80
2018-12-12T21:03:00.971Z,19.20
2018-12-12T21:05:30.609Z,15.90
2018-12-12T21:07:59.975Z,20.07
2018-12-12T21:10:28.895Z,21.60
2018-12-12T21:12:58.078Z,20.13
2018-12-12T21:15:27.306Z,18.63
2018-12-12T21:17:56.457Z,37.00
2018-12-12T21:20:26.193Z,23.30
2018-12-12T21:22:56.204Z,19.63
2018-12-12T21:25:29.067Z,16.50
2018-12-12T21:27:57.244Z,17.87
2018-12-12T21:30:25.453Z,17.60
2018-12-12T21:32:54.683Z,19.23
2018-12-12T21:35:23.025Z,19.00
2018-12-12T21:37:51.255Z,16.17
2018-12-12T21:40:19.550Z,15.97
2018-12-12T21:42:47.929Z,17.87
2018-12-12T21:45:16.242Z,15.53
2018-12-12T21:47:45.111Z,17.43
2018-12-12T21:50:16.263Z,21.10
2018-12-12T21:52:44.990Z,17.70
2018-12-12T21:55:13.001Z,21.20
2018-12-12T21:57:42.418Z,14.67
2018-12-12T22:00:10.678Z,17.17
2018-12-12T22:02:38.680Z,22.13
2018-12-12T22:05:06.816Z,18.57
2018-12-12T22:07:34.844Z,19.97
2018-12-12T22:10:03.460Z,17.53
2018-12-12T22:12:32.585Z,19.63
2018-12-12T22:15:00.656Z,17.60
2018-12-12T22:17:40.431Z,19.20
2018-12-12T22:20:20.232Z,18.70
2018-12-12T22:22:58.942Z,17.97
2018-12-12T22:25:38.805Z,18.50
2018-12-12T22:28:19.341Z,15.93
2018-12-12T22:30:56.269Z,15.87
2018-12-12T22:33:34.128Z,22.20
2018-12-12T22:36:14.262Z,18.60
2018-12-12T22:38:53.423Z,21.50
2018-12-12T22:41:22.493Z,19.60
2018-12-12T22:43:50.541Z,17.27
2018-12-12T22:46:18.503Z,17.13
2018-12-12T22:48:46.478Z,17.53
2018-12-12T22:51:14.551Z,16.80
2018-12-12T22:53:42.510Z,17.53
2018-12-12T22:56:10.487Z,17.53
2018-12-12T22:58:38.464Z,15.97
2018-12-12T23:01:14.836Z,18.67
2018-12-12T23:03:44.881Z,17.07
2018-12-12T23:06:13.700Z,15.37
2018-12-12T23:08:42.194Z,15.37
2018-12-12T23:11:10.869Z,14.10
2018-12-12T23:13:38.827Z,14.70
2018-12-12T23:16:06.896Z,14.50
2018-12-12T23:18:34.858Z,15.10
2018-12-12T23:21:02.836Z,15.77
2018-12-12T23:23:30.808Z,17.27
2018-12-12T23:25:58.827Z,15.07
2018-12-12T23:28:26.799Z,15.60
2018-12-12T23:30:54.772Z,12.43
2018-12-12T23:33:24.023Z,14.47
2018-12-12T23:35:52.560Z,14.23
2018-12-12T23:38:20.543Z,18.00
2018-12-12T23:40:48.529Z,13.53
2018-12-12T23:43:16.633Z,13.33
2018-12-12T23:45:44.600Z,13.77
2018-12-12T23:48:13.187Z,14.73
2018-12-12T23:50:41.142Z,13.87
2018-12-12T23:53:09.143Z,13.30
2018-12-12T23:55:37.111Z,13.93
2018-12-12T23:58:05.144Z,14.17
